Grover Beach, California
Current Conditions -  °F | °C
As of 9:56 AM on Wednesday 26 Nov 2014 (Local Time) from KSBP Reporting Station
Clear Clear  
Wind Chill: 18°   Ceiling: Unl
Heat Index: 18°   Visibility: 10mi
Dew Point: -1°   Wind: 0mph
Humidity: 28%   Direction: NA
Pressure: 30.26"   Gusts: NA
Location:  35.12°N, 120.62°W
Report Text: KSBP 261756Z 00000KT 10SM CLR 18/M01 A3026 RMK AO2 SLP247 T01831006 10183 20050 50003
Loading
Personal Weather Stations






























Interactive Weather Map New forecast layout! Learn more

10-Day Weather Forecast

Advertisements
Track Severe Weather on mobile